createdAt,value
2022-10-06T00:00:04.081Z,0.18
2022-10-06T00:01:05.059Z,0
2022-10-06T00:02:06.094Z,0
2022-10-06T00:03:07.176Z,0
2022-10-06T00:04:08.007Z,0
2022-10-06T00:05:09.132Z,0.11
2022-10-06T00:06:10.130Z,0.29
2022-10-06T00:07:11.171Z,0
2022-10-06T00:08:12.110Z,0.08
2022-10-06T00:09:13.119Z,0
2022-10-06T00:10:14.115Z,0
2022-10-06T00:11:15.118Z,0
2022-10-06T00:12:16.072Z,0
2022-10-06T00:13:17.111Z,0.08
2022-10-06T00:14:18.090Z,0
2022-10-06T00:15:19.091Z,0
2022-10-06T00:16:20.139Z,0.08
2022-10-06T00:17:21.150Z,0
2022-10-06T00:18:22.092Z,0
2022-10-06T00:19:23.110Z,0.51
2022-10-06T00:20:24.171Z,0.19
2022-10-06T00:21:25.143Z,0.11
2022-10-06T00:22:26.231Z,0.06
2022-10-06T00:23:28.070Z,0.44
2022-10-06T00:24:29.111Z,0.31
2022-10-06T00:25:30.148Z,0.4
2022-10-06T00:26:31.134Z,0.35
2022-10-06T00:27:32.111Z,0.33
2022-10-06T00:28:33.610Z,0.29
2022-10-06T00:29:35.290Z,0.33
2022-10-06T00:30:37.190Z,0.36
2022-10-06T00:31:39.212Z,0.35
2022-10-06T00:32:41.173Z,0.24
2022-10-06T00:33:42.103Z,0.5
2022-10-06T00:34:43.295Z,0.76
2022-10-06T00:35:45.091Z,0.42
2022-10-06T00:36:46.150Z,0.44
2022-10-06T00:37:47.117Z,0.29
2022-10-06T00:38:48.069Z,0.43
2022-10-06T00:39:49.531Z,0.16
2022-10-06T00:40:51.244Z,0.25
2022-10-06T00:41:53.271Z,0.5
2022-10-06T00:42:55.190Z,0.34
2022-10-06T00:43:57.398Z,0.32
2022-10-06T00:44:59.204Z,0.37
2022-10-06T00:46:01.264Z,0.1
2022-10-06T00:47:03.253Z,0.22
2022-10-06T00:48:05.231Z,0
2022-10-06T00:49:07.231Z,0
2022-10-06T00:50:09.131Z,0.07
2022-10-06T00:51:10.140Z,0
2022-10-06T00:52:11.090Z,0
2022-10-06T00:53:12.113Z,0
2022-10-06T00:54:13.151Z,0.47
2022-10-06T00:55:14.196Z,0.26
2022-10-06T00:56:16.117Z,0
2022-10-06T00:57:17.116Z,0
2022-10-06T00:58:18.171Z,0
2022-10-06T00:59:19.150Z,0.36
2022-10-06T01:00:20.270Z,0.15
2022-10-06T01:04:24.438Z,0.1
2022-10-06T01:05:26.299Z,0.11
2022-10-06T01:06:28.214Z,0.12
2022-10-06T01:07:30.340Z,0.12
2022-10-06T01:08:32.633Z,0
2022-10-06T01:09:34.379Z,0
2022-10-06T01:10:36.298Z,0
2022-10-06T01:11:38.303Z,0
2022-10-06T01:12:40.181Z,0
2022-10-06T01:13:41.319Z,0
2022-10-06T01:14:43.726Z,0
2022-10-06T01:15:45.393Z,0
2022-10-06T01:16:47.200Z,0
2022-10-06T01:17:49.591Z,0
2022-10-06T01:18:51.206Z,0
2022-10-06T01:19:53.178Z,0
2022-10-06T01:20:54.299Z,0
2022-10-06T01:21:56.338Z,0
2022-10-06T01:22:58.258Z,0
2022-10-06T01:24:00.122Z,0
2022-10-06T01:25:01.253Z,0
2022-10-06T01:26:03.300Z,0
2022-10-06T01:27:05.171Z,0
2022-10-06T01:28:06.353Z,0
2022-10-06T01:29:08.289Z,0
2022-10-06T01:30:10.318Z,0
2022-10-06T01:31:12.443Z,0
2022-10-06T01:32:14.139Z,0
2022-10-06T01:33:16.204Z,0
2022-10-06T01:34:18.032Z,0
2022-10-06T01:35:19.101Z,0
2022-10-06T01:36:20.158Z,0.34
2022-10-06T01:37:21.138Z,0.11
2022-10-06T01:38:22.391Z,0.2
2022-10-06T01:39:24.160Z,0.31
2022-10-06T01:40:25.206Z,0.26
2022-10-06T01:41:26.168Z,0.23
2022-10-06T01:42:27.281Z,0.14
2022-10-06T01:43:28.163Z,0.17
2022-10-06T01:44:29.098Z,0.17
2022-10-06T01:45:30.158Z,0.57
2022-10-06T01:46:31.266Z,0.45
2022-10-06T01:47:32.078Z,0.24
2022-10-06T01:48:33.278Z,0.41
2022-10-06T01:49:35.338Z,0.06
2022-10-06T01:50:37.279Z,0.36
2022-10-06T01:51:39.279Z,0.1
2022-10-06T01:52:41.238Z,0.22
2022-10-06T01:53:43.181Z,0.14
2022-10-06T01:54:44.146Z,0.31
2022-10-06T01:55:45.162Z,0.45
2022-10-06T01:56:46.126Z,0.61
2022-10-06T01:57:47.223Z,1.09
2022-10-06T01:58:48.098Z,1.13
2022-10-06T01:59:54.536Z,0.94
2022-10-06T02:00:51.179Z,1.11
2022-10-06T02:01:52.071Z,1.3
2022-10-06T02:02:53.102Z,1.09
2022-10-06T02:03:54.161Z,1.14
2022-10-06T02:04:55.160Z,1.22
2022-10-06T02:05:56.241Z,1.08
2022-10-06T02:06:57.158Z,1.31
2022-10-06T02:07:58.166Z,1.39
2022-10-06T02:08:59.239Z,1.43
2022-10-06T02:10:01.279Z,1.25
2022-10-06T02:11:03.260Z,1.63
2022-10-06T02:12:05.099Z,1.01
2022-10-06T02:13:06.222Z,1.31
2022-10-06T02:14:07.358Z,0.95
2022-10-06T02:15:09.222Z,1.17
2022-10-06T02:16:10.248Z,1.68
2022-10-06T02:17:11.185Z,1.79
2022-10-06T02:18:12.206Z,1.57
2022-10-06T02:19:13.246Z,1.81
2022-10-06T02:20:14.228Z,1.63
2022-10-06T02:21:16.179Z,1.29
2022-10-06T02:22:17.098Z,1.7
2022-10-06T02:23:18.167Z,1.45
2022-10-06T02:24:19.178Z,1.05
2022-10-06T02:25:20.155Z,1.08
2022-10-06T02:26:21.198Z,1.7
2022-10-06T02:27:22.138Z,1.55
2022-10-06T02:28:23.225Z,1.1
2022-10-06T02:29:24.311Z,1.55
2022-10-06T02:30:26.179Z,1.28
2022-10-06T02:31:27.227Z,0.94
2022-10-06T02:32:28.166Z,0.77
2022-10-06T02:33:29.074Z,1.05
2022-10-06T02:34:30.280Z,1.31
2022-10-06T02:35:32.158Z,1.04
2022-10-06T02:36:33.139Z,1.09
2022-10-06T02:37:34.100Z,1.06
2022-10-06T02:38:35.218Z,1.06
2022-10-06T02:39:36.218Z,0.9
2022-10-06T02:40:37.258Z,0.71
2022-10-06T02:41:39.198Z,1.1
2022-10-06T02:42:40.183Z,1.01
2022-10-06T02:43:41.273Z,1.15
2022-10-06T02:44:42.266Z,1
2022-10-06T02:45:44.221Z,0.97
2022-10-06T02:46:45.289Z,0.55
2022-10-06T02:47:47.516Z,1.03
2022-10-06T02:48:49.278Z,0.96
2022-10-06T02:49:51.179Z,1.2
2022-10-06T02:50:52.139Z,1.17
2022-10-06T02:51:53.261Z,1.16
2022-10-06T02:52:55.180Z,1.09
2022-10-06T02:53:56.178Z,1.26
2022-10-06T02:54:57.208Z,1.26
2022-10-06T02:55:58.178Z,1.09
2022-10-06T02:56:59.186Z,2.19
2022-10-06T02:58:00.159Z,1.75
2022-10-06T02:59:01.262Z,1.42
2022-10-06T03:00:02.318Z,1.4
2022-10-06T03:01:04.246Z,1.15
2022-10-06T03:02:06.268Z,1.14
2022-10-06T03:03:07.271Z,1.43
2022-10-06T03:04:08.148Z,1.29
2022-10-06T03:05:09.177Z,1.4
2022-10-06T03:06:10.199Z,1.05
2022-10-06T03:07:11.299Z,1.39
2022-10-06T03:08:13.238Z,1.47
2022-10-06T03:09:14.238Z,1.51
2022-10-06T03:10:15.258Z,1.17
2022-10-06T03:11:16.217Z,1.13
2022-10-06T03:12:17.230Z,1.15
2022-10-06T03:13:18.138Z,0.98
2022-10-06T03:14:21.993Z,1.2
2022-10-06T03:15:20.258Z,1.03
2022-10-06T03:16:21.220Z,0.95
2022-10-06T03:17:22.199Z,1.39
2022-10-06T03:18:23.139Z,1.02
2022-10-06T03:19:24.178Z,0.94
2022-10-06T03:20:25.238Z,1.16
2022-10-06T03:21:26.197Z,0.98
2022-10-06T03:22:27.246Z,1.16
2022-10-06T03:23:28.277Z,1.3
2022-10-06T03:24:30.286Z,0.9
2022-10-06T03:25:32.159Z,1.08
2022-10-06T03:26:33.318Z,1.08
2022-10-06T03:27:35.341Z,0.83
2022-10-06T03:28:37.370Z,1.4
2022-10-06T03:29:39.273Z,1.13
2022-10-06T03:30:40.159Z,0.85
2022-10-06T03:31:41.276Z,1.09
2022-10-06T03:32:42.199Z,0.83
2022-10-06T03:33:43.298Z,0.92
2022-10-06T03:34:45.479Z,1.06
2022-10-06T03:35:47.155Z,1.26
2022-10-06T03:36:48.138Z,0.82
2022-10-06T03:37:49.218Z,1.64
2022-10-06T03:38:50.199Z,1.13
2022-10-06T03:39:51.238Z,1.56
2022-10-06T03:40:52.219Z,1.72
2022-10-06T03:41:53.238Z,1.64
2022-10-06T03:42:54.182Z,1.53
2022-10-06T03:43:55.203Z,2.3
2022-10-06T03:44:56.375Z,1.48
2022-10-06T03:45:57.224Z,0.85
2022-10-06T03:46:58.297Z,1.51
2022-10-06T03:47:59.218Z,1.25
2022-10-06T03:49:00.259Z,0.7
2022-10-06T03:50:01.199Z,1.09
2022-10-06T03:51:02.218Z,0.98
2022-10-06T03:52:03.159Z,0.94
2022-10-06T03:53:04.159Z,0.85
2022-10-06T03:54:05.207Z,1.34
2022-10-06T03:55:06.240Z,0.96
2022-10-06T03:56:07.242Z,1.26
2022-10-06T03:57:08.197Z,1.16
2022-10-06T03:58:09.198Z,0.68
2022-10-06T03:59:10.158Z,1.17
2022-10-06T04:00:11.261Z,1.06
2022-10-06T04:01:12.215Z,1.18
2022-10-06T04:02:13.285Z,1.36
2022-10-06T04:03:14.239Z,1.38
2022-10-06T04:04:15.249Z,0.73
2022-10-06T04:05:16.198Z,0.93
2022-10-06T04:06:17.322Z,1.08
2022-10-06T04:07:19.322Z,0.91
2022-10-06T04:08:21.369Z,1.2
2022-10-06T04:09:23.347Z,1.31
2022-10-06T04:10:25.258Z,1.46
2022-10-06T04:11:26.219Z,1.35
2022-10-06T04:12:27.181Z,1.38
2022-10-06T04:13:28.218Z,1.53
2022-10-06T04:14:29.658Z,1.84
2022-10-06T04:15:31.223Z,1.68
2022-10-06T04:16:32.384Z,1.57
2022-10-06T04:17:34.198Z,1.99
2022-10-06T04:18:35.246Z,1.44
2022-10-06T04:19:36.165Z,1.38
2022-10-06T04:20:37.281Z,1.08
2022-10-06T04:21:38.189Z,1.24
2022-10-06T04:22:39.201Z,1.07
2022-10-06T04:23:40.162Z,0.99
2022-10-06T04:24:41.225Z,1.33
2022-10-06T04:25:42.238Z,1.29
2022-10-06T04:26:43.219Z,1.46
2022-10-06T04:27:44.219Z,1.01
2022-10-06T04:28:45.268Z,0.7
2022-10-06T04:29:46.139Z,1.07
2022-10-06T04:30:47.363Z,0.56
2022-10-06T04:31:49.310Z,1.49
2022-10-06T04:32:50.339Z,1.27
2022-10-06T04:33:52.198Z,1.19
2022-10-06T04:34:53.178Z,1.22
2022-10-06T04:35:54.239Z,0.93
2022-10-06T04:36:55.312Z,1.48
2022-10-06T04:37:56.218Z,1.06
2022-10-06T04:38:57.219Z,1.42
2022-10-06T04:39:58.241Z,1.72
2022-10-06T04:40:59.163Z,1.73
2022-10-06T04:42:00.207Z,1.52
2022-10-06T04:43:01.179Z,1.34
2022-10-06T04:44:02.218Z,0.96
2022-10-06T04:45:03.272Z,1.21
2022-10-06T04:46:18.333Z,1.7
2022-10-06T04:47:05.271Z,1.66
2022-10-06T04:48:06.158Z,1.85
2022-10-06T04:49:07.251Z,1.32
2022-10-06T04:50:08.339Z,1.24
2022-10-06T04:51:10.239Z,1.01
2022-10-06T04:52:11.287Z,1.53
2022-10-06T04:53:12.318Z,1.21
2022-10-06T04:54:14.246Z,0.99
2022-10-06T04:55:15.367Z,1.23
2022-10-06T04:56:17.258Z,1.32
2022-10-06T04:57:18.276Z,1.36
2022-10-06T04:58:19.183Z,1.54
2022-10-06T04:59:20.278Z,1.46
2022-10-06T05:00:21.238Z,1.48
2022-10-06T05:01:22.321Z,1.6
2022-10-06T05:02:23.280Z,1.66
2022-10-06T05:03:24.182Z,1.16
2022-10-06T05:04:25.239Z,0.86
2022-10-06T05:05:26.238Z,0.77
2022-10-06T05:06:27.283Z,1.36
2022-10-06T05:07:28.239Z,1.24
2022-10-06T05:08:29.642Z,1.32
2022-10-06T05:09:30.206Z,1.53
2022-10-06T05:10:31.199Z,2.02
2022-10-06T05:11:32.239Z,1.68
2022-10-06T05:12:33.238Z,1.34
2022-10-06T05:13:34.379Z,1.82
2022-10-06T05:14:36.489Z,1.05
2022-10-06T05:15:38.294Z,1.28
2022-10-06T05:16:39.325Z,2.33
2022-10-06T05:17:40.277Z,2.21
2022-10-06T05:18:41.199Z,2.72
2022-10-06T05:19:42.218Z,2
2022-10-06T05:20:43.238Z,1.13
2022-10-06T05:21:44.929Z,0.79
2022-10-06T05:22:49.615Z,1.03
2022-10-06T05:23:54.064Z,0.82
2022-10-06T05:24:57.188Z,1.56
2022-10-06T05:26:02.283Z,1.53
2022-10-06T05:27:04.340Z,1.45
2022-10-06T05:28:06.329Z,2.05
2022-10-06T05:29:07.260Z,1.94
2022-10-06T05:30:08.300Z,1.97
2022-10-06T05:31:09.502Z,1.6
2022-10-06T05:32:11.230Z,1.43
2022-10-06T05:33:12.306Z,1.22
2022-10-06T05:34:13.278Z,2.06
2022-10-06T05:35:14.226Z,1.43
2022-10-06T05:36:15.213Z,1.56
2022-10-06T05:37:16.249Z,1.02
2022-10-06T05:38:17.279Z,2.3
2022-10-06T05:39:18.281Z,2.02
2022-10-06T05:40:19.171Z,2.3
2022-10-06T05:41:20.249Z,1.13
2022-10-06T05:42:22.082Z,1.36
2022-10-06T05:43:22.258Z,1.56
2022-10-06T05:44:23.278Z,1.42
2022-10-06T05:45:24.199Z,1.77
2022-10-06T05:46:25.393Z,2.61
2022-10-06T05:47:26.363Z,2.12
2022-10-06T05:48:27.722Z,1.53
2022-10-06T05:49:28.678Z,1.42
2022-10-06T05:50:30.259Z,1.11
2022-10-06T05:51:31.543Z,1.05
2022-10-06T05:52:32.240Z,1.51
2022-10-06T05:53:33.280Z,1.2
2022-10-06T05:54:34.338Z,0.75
2022-10-06T05:55:35.295Z,1.14
2022-10-06T05:56:36.340Z,0.75
2022-10-06T05:57:37.268Z,1.17
2022-10-06T05:58:38.281Z,1.3
2022-10-06T05:59:39.260Z,1.68
2022-10-06T06:00:40.299Z,1.63
2022-10-06T06:01:41.345Z,1.32
2022-10-06T06:02:42.342Z,1.22
2022-10-06T06:03:43.339Z,1.4
2022-10-06T06:04:44.230Z,1.93
2022-10-06T06:05:45.339Z,2.09
2022-10-06T06:06:46.310Z,1.83
2022-10-06T06:07:47.279Z,1.97
2022-10-06T06:08:48.339Z,1.52
2022-10-06T06:09:49.200Z,1.57
2022-10-06T06:10:50.299Z,1.67
2022-10-06T06:11:51.581Z,1.19
2022-10-06T06:12:53.339Z,1.23
2022-10-06T06:13:54.278Z,1.09
2022-10-06T06:14:55.319Z,1.17
2022-10-06T06:15:56.210Z,1.73
2022-10-06T06:16:57.406Z,2
2022-10-06T06:17:58.411Z,1.69
2022-10-06T06:19:00.299Z,1.4
2022-10-06T06:20:01.259Z,0.98
2022-10-06T06:21:02.319Z,1.42
2022-10-06T06:22:03.281Z,2.12
2022-10-06T06:23:04.278Z,2.11
2022-10-06T06:24:05.238Z,1.32
2022-10-06T06:25:06.281Z,1.35
2022-10-06T06:26:07.319Z,1.69
2022-10-06T06:27:08.279Z,1.42
2022-10-06T06:28:09.459Z,1.4
2022-10-06T06:29:10.316Z,1.55
2022-10-06T06:30:11.278Z,1.38
2022-10-06T06:31:15.083Z,1.71
2022-10-06T06:32:13.359Z,1.42
2022-10-06T06:33:14.352Z,1.55
2022-10-06T06:34:15.293Z,1.53
2022-10-06T06:35:16.338Z,1.36
2022-10-06T06:36:18.339Z,1.62
2022-10-06T06:37:19.201Z,1.62
2022-10-06T06:38:20.319Z,1.96
2022-10-06T06:39:21.298Z,1.84
2022-10-06T06:40:22.342Z,2.05
2022-10-06T06:41:23.259Z,1.89
2022-10-06T06:42:24.299Z,2.06
2022-10-06T06:43:25.319Z,1.44
2022-10-06T06:44:26.278Z,1.68
2022-10-06T06:45:27.349Z,1.83
2022-10-06T06:46:28.509Z,1.77
2022-10-06T06:47:29.318Z,1.97
2022-10-06T06:48:30.490Z,2.15
2022-10-06T06:49:31.318Z,2.23
2022-10-06T06:50:32.237Z,1.74
2022-10-06T06:51:33.303Z,1.22
2022-10-06T06:52:34.419Z,2.09
2022-10-06T06:53:36.219Z,1.73
2022-10-06T06:54:37.319Z,2.39
2022-10-06T06:55:38.298Z,2.26
2022-10-06T06:56:39.334Z,2.73
2022-10-06T06:57:40.287Z,2.09
2022-10-06T06:58:41.299Z,2.76
2022-10-06T06:59:42.279Z,1.84
2022-10-06T07:00:46.141Z,2.22
2022-10-06T07:01:48.300Z,2.01
2022-10-06T07:02:49.261Z,1.74
2022-10-06T07:03:57.413Z,2.53
2022-10-06T07:04:51.859Z,1.35
2022-10-06T07:05:53.398Z,2.02
2022-10-06T07:06:55.259Z,2.16
2022-10-06T07:07:56.259Z,2.24
2022-10-06T07:08:57.318Z,1.92
2022-10-06T07:09:58.419Z,1.4
2022-10-06T07:11:00.298Z,1.65
2022-10-06T07:12:01.419Z,1.67
2022-10-06T07:13:05.161Z,1.98
2022-10-06T07:14:07.320Z,1.44
2022-10-06T07:15:08.378Z,0.88
2022-10-06T07:16:09.365Z,1.54
2022-10-06T07:17:10.367Z,2.43
2022-10-06T07:18:11.380Z,1.34
2022-10-06T07:19:12.513Z,1.32
2022-10-06T07:20:14.360Z,1.49
2022-10-06T07:21:15.355Z,1.01
2022-10-06T07:22:16.302Z,1.35
2022-10-06T07:23:17.308Z,1.26
2022-10-06T07:24:18.414Z,1.67
2022-10-06T07:25:24.484Z,1.57
2022-10-06T07:26:21.367Z,0.96
2022-10-06T07:27:22.358Z,1.81
2022-10-06T07:28:23.380Z,1.04
2022-10-06T07:29:24.318Z,1.07
2022-10-06T07:30:25.339Z,1.32
2022-10-06T07:31:26.436Z,1.32
2022-10-06T07:32:27.360Z,1.1
2022-10-06T07:33:28.339Z,0.61
2022-10-06T07:34:29.315Z,1.72
2022-10-06T07:35:30.380Z,1.24
2022-10-06T07:36:31.739Z,1.48
2022-10-06T07:37:33.415Z,2.37
2022-10-06T07:38:34.285Z,1.24
2022-10-06T07:39:35.319Z,1.69
2022-10-06T07:40:36.363Z,0.65
2022-10-06T07:41:37.341Z,0.81
2022-10-06T07:42:38.459Z,0.98
2022-10-06T07:43:40.320Z,0.94
2022-10-06T07:44:41.359Z,0.55
2022-10-06T07:45:42.550Z,0.75
2022-10-06T07:46:43.360Z,0.82
2022-10-06T07:47:44.359Z,0.81
2022-10-06T07:48:45.420Z,1.04
2022-10-06T07:49:47.387Z,1.25
2022-10-06T07:50:48.438Z,0.88
2022-10-06T07:51:50.299Z,2.84
2022-10-06T07:52:51.898Z,2.61
2022-10-06T07:53:53.341Z,1.87
2022-10-06T07:54:54.733Z,1.48
2022-10-06T07:55:55.339Z,0.92
2022-10-06T07:56:56.339Z,2.36
2022-10-06T07:57:57.319Z,1.52
2022-10-06T07:58:58.323Z,2.02
2022-10-06T08:00:03.012Z,1.56
2022-10-06T08:01:00.379Z,1.06
2022-10-06T08:02:01.511Z,1.3
2022-10-06T08:03:02.447Z,2.61
2022-10-06T08:04:03.399Z,1.68
2022-10-06T08:05:04.521Z,1.86
2022-10-06T08:06:08.304Z,1.66
2022-10-06T08:07:09.379Z,1.52
2022-10-06T08:08:10.359Z,1.82
2022-10-06T08:09:11.418Z,2.06
2022-10-06T08:10:12.407Z,1.53
2022-10-06T08:11:13.352Z,0.77
2022-10-06T08:12:14.459Z,0.9
2022-10-06T08:13:16.372Z,1.18
2022-10-06T08:14:17.427Z,0.89
2022-10-06T08:15:18.286Z,0.85
2022-10-06T08:16:19.365Z,1.1
2022-10-06T08:17:20.358Z,1.26
2022-10-06T08:18:41.321Z,1.27
2022-10-06T08:19:23.339Z,1.5
2022-10-06T08:20:24.479Z,0.66
2022-10-06T08:21:25.380Z,0.39
2022-10-06T08:22:26.358Z,0.76
2022-10-06T08:23:27.400Z,0.79
2022-10-06T08:24:33.868Z,0.59
2022-10-06T08:25:29.324Z,0.54
2022-10-06T08:26:30.359Z,1.01
2022-10-06T08:27:31.378Z,1.44
2022-10-06T08:28:32.463Z,0.6
2022-10-06T08:29:33.285Z,1.5
2022-10-06T08:30:34.459Z,0.99
2022-10-06T08:31:36.551Z,1.34
2022-10-06T08:32:38.498Z,0.99
2022-10-06T08:33:40.299Z,0.58
2022-10-06T08:34:41.359Z,0.6
2022-10-06T08:35:42.507Z,0.24
2022-10-06T08:36:56.900Z,0.26
2022-10-06T08:37:46.281Z,0.5
2022-10-06T08:38:47.399Z,0.41
2022-10-06T08:39:48.380Z,0.56
2022-10-06T08:40:49.747Z,0.48
2022-10-06T08:41:51.455Z,0.48
2022-10-06T08:42:53.358Z,0.07
2022-10-06T08:43:54.371Z,0.29
2022-10-06T08:44:55.702Z,0.36
2022-10-06T08:45:56.433Z,0.38
2022-10-06T08:46:58.343Z,0.08
2022-10-06T08:47:59.460Z,0.23
2022-10-06T08:49:00.367Z,0
2022-10-06T08:50:01.361Z,0.44
2022-10-06T08:51:02.487Z,0.31
2022-10-06T08:52:03.506Z,0.43
2022-10-06T08:53:05.542Z,0
2022-10-06T08:54:07.539Z,0.25
2022-10-06T08:55:09.388Z,0.12
2022-10-06T08:56:10.347Z,0.32
2022-10-06T08:57:11.379Z,0
2022-10-06T08:58:12.366Z,0.29
2022-10-06T08:59:13.399Z,0.17
2022-10-06T09:00:17.901Z,0.48
2022-10-06T09:01:16.535Z,0.2
2022-10-06T09:02:18.555Z,0
2022-10-06T09:03:20.419Z,0.52
2022-10-06T09:04:21.359Z,0.3
2022-10-06T09:05:22.439Z,0.27
2022-10-06T09:06:23.419Z,0.9
2022-10-06T09:07:24.442Z,0.29
2022-10-06T09:08:25.439Z,0.29
2022-10-06T09:09:26.461Z,0.28
2022-10-06T09:10:27.468Z,0.19
2022-10-06T09:11:29.378Z,0.3
2022-10-06T09:12:30.442Z,0.22
2022-10-06T09:13:31.358Z,0.73
2022-10-06T09:14:32.426Z,0.63
2022-10-06T09:15:33.464Z,0.34
2022-10-06T09:16:35.559Z,0.49
2022-10-06T09:17:37.536Z,0.37
2022-10-06T09:18:56.350Z,0.35
2022-10-06T09:19:40.361Z,0.25
2022-10-06T09:20:41.407Z,0.41
2022-10-06T09:21:42.465Z,0.66
2022-10-06T09:22:43.399Z,0.07
2022-10-06T09:23:44.514Z,0.61
2022-10-06T09:24:47.604Z,0.18
2022-10-06T09:25:48.399Z,0.3
2022-10-06T09:26:49.380Z,0.33
2022-10-06T09:27:50.420Z,0.16
2022-10-06T09:28:51.418Z,0.14
2022-10-06T09:29:52.659Z,0.29
2022-10-06T09:30:55.421Z,0.09
2022-10-06T09:31:54.382Z,0
2022-10-06T09:32:55.420Z,0.07
2022-10-06T09:33:56.439Z,0.16
2022-10-06T09:34:57.399Z,0.05
2022-10-06T09:35:58.367Z,0.36
2022-10-06T09:37:01.466Z,0
2022-10-06T09:38:03.278Z,0.36
2022-10-06T09:39:01.418Z,0.38
2022-10-06T09:40:02.519Z,0.25
2022-10-06T09:41:04.429Z,0
2022-10-06T09:42:05.359Z,0.17
2022-10-06T09:43:06.406Z,0.34
2022-10-06T09:44:07.393Z,0.17
2022-10-06T09:45:08.522Z,0.52
2022-10-06T09:46:10.487Z,0.36
2022-10-06T09:47:11.359Z,0.43
2022-10-06T09:48:12.399Z,0.24
2022-10-06T09:49:13.407Z,0.52
2022-10-06T09:50:14.454Z,0.64
2022-10-06T09:51:15.347Z,0.3
2022-10-06T09:52:16.284Z,0.33
2022-10-06T09:53:17.419Z,0.24
2022-10-06T09:54:18.419Z,0.37
2022-10-06T09:55:19.293Z,0.12
2022-10-06T09:56:20.291Z,0.21
2022-10-06T09:57:21.778Z,0.39
2022-10-06T09:58:23.393Z,0
2022-10-06T09:59:24.379Z,0.07
2022-10-06T10:00:25.427Z,0
2022-10-06T10:01:26.472Z,0
2022-10-06T10:02:27.486Z,0
2022-10-06T10:03:28.459Z,0.14
2022-10-06T10:04:29.479Z,0
2022-10-06T10:05:30.419Z,0.12
2022-10-06T10:06:31.381Z,0
2022-10-06T10:07:32.387Z,0
2022-10-06T10:09:34.520Z,0.35
2022-10-06T10:10:36.538Z,0.19
2022-10-06T10:11:38.439Z,0.44
2022-10-06T10:12:39.318Z,0.74
2022-10-06T10:13:40.339Z,0.47
2022-10-06T10:14:41.458Z,0.22
2022-10-06T10:15:42.409Z,0.35
2022-10-06T10:16:43.479Z,0.43
2022-10-06T10:17:44.426Z,0.3
2022-10-06T10:18:45.462Z,0.45
2022-10-06T10:19:46.440Z,0.44
2022-10-06T10:20:47.478Z,0.22
2022-10-06T10:21:48.438Z,0.19
2022-10-06T10:22:49.450Z,0.79
2022-10-06T10:23:50.498Z,0.45
2022-10-06T10:24:52.500Z,0.42
2022-10-06T10:25:54.446Z,0.21
2022-10-06T10:26:55.679Z,0.33
2022-10-06T10:27:57.490Z,0.49
2022-10-06T10:28:58.427Z,0.2
2022-10-06T10:29:59.762Z,0.22
2022-10-06T10:31:01.507Z,0.36
2022-10-06T10:32:02.553Z,0.23
2022-10-06T10:33:04.458Z,0.28
2022-10-06T10:34:12.331Z,0.18
2022-10-06T10:35:06.487Z,0
2022-10-06T10:36:07.541Z,0
2022-10-06T10:37:09.458Z,0.05
2022-10-06T10:38:14.511Z,0.31
2022-10-06T10:39:11.440Z,0.21
2022-10-06T10:40:12.458Z,0.36
2022-10-06T10:41:13.401Z,0.09
2022-10-06T10:42:14.488Z,0.04
2022-10-06T10:43:15.479Z,0.51
2022-10-06T10:44:16.519Z,0
2022-10-06T10:45:17.447Z,0
2022-10-06T10:46:18.633Z,0.3
2022-10-06T10:47:20.356Z,0.3
2022-10-06T10:48:21.426Z,0.3
2022-10-06T10:49:22.420Z,1.67
2022-10-06T10:50:23.429Z,0.91
2022-10-06T10:51:24.461Z,0.61
2022-10-06T10:52:25.381Z,0.21
2022-10-06T10:53:26.524Z,0.77
2022-10-06T10:54:27.539Z,0.61
2022-10-06T10:55:29.434Z,0.07
2022-10-06T10:56:30.500Z,0.54
2022-10-06T10:57:31.440Z,0.68
2022-10-06T10:58:32.381Z,0.23
2022-10-06T10:59:33.462Z,0.61
2022-10-06T11:00:34.694Z,0.6
2022-10-06T11:01:36.605Z,0.2
2022-10-06T11:02:38.439Z,0.49
2022-10-06T11:03:39.438Z,0.27
2022-10-06T11:04:40.347Z,0.72
2022-10-06T11:05:41.458Z,0.75
2022-10-06T11:06:42.438Z,0.24
2022-10-06T11:07:43.407Z,0.3
2022-10-06T11:08:44.483Z,0.61
2022-10-06T11:09:45.528Z,0.07
2022-10-06T11:10:46.459Z,0.28
2022-10-06T11:11:52.027Z,0.51
2022-10-06T11:12:49.489Z,0.75
2022-10-06T11:13:50.350Z,0.36
2022-10-06T11:14:51.454Z,0.17
2022-10-06T11:15:52.717Z,0.23
2022-10-06T11:16:54.487Z,0.11
2022-10-06T11:17:55.419Z,0.09
2022-10-06T11:18:56.520Z,1
2022-10-06T11:19:57.519Z,0.41
2022-10-06T11:20:58.457Z,0.92
2022-10-06T11:21:59.679Z,0.7
2022-10-06T11:23:01.478Z,0.46
2022-10-06T11:24:02.522Z,0.38
2022-10-06T11:25:04.598Z,0.2
2022-10-06T11:26:06.400Z,0.56
2022-10-06T11:27:07.419Z,0.68
2022-10-06T11:28:08.578Z,0.18
2022-10-06T11:29:10.483Z,0.57
2022-10-06T11:30:11.540Z,0.66
2022-10-06T11:31:12.551Z,0.94
2022-10-06T11:32:13.459Z,0.56
2022-10-06T11:33:14.486Z,0.7
2022-10-06T11:34:15.518Z,0.56
2022-10-06T11:35:16.519Z,0.62
2022-10-06T11:36:17.459Z,0.43
2022-10-06T11:37:18.562Z,0.15
2022-10-06T11:38:20.560Z,0.4
2022-10-06T11:39:22.446Z,0.44
2022-10-06T11:40:23.463Z,0.39
2022-10-06T11:41:24.459Z,0
2022-10-06T11:42:25.588Z,0.19
2022-10-06T11:43:26.479Z,0.47
2022-10-06T11:44:27.499Z,0.53
2022-10-06T11:45:28.629Z,0.54
2022-10-06T11:46:31.723Z,0.94
2022-10-06T11:47:35.258Z,0.47
2022-10-06T11:48:32.500Z,0.6
2022-10-06T11:49:33.458Z,0.25
2022-10-06T11:50:34.419Z,1.06
2022-10-06T11:51:35.534Z,0.58
2022-10-06T11:52:37.620Z,0.69
2022-10-06T11:53:39.539Z,1.48
2022-10-06T11:54:40.545Z,1.09
2022-10-06T11:55:41.439Z,0.54
2022-10-06T11:56:42.498Z,0.85
2022-10-06T11:57:43.498Z,1.06
2022-10-06T11:58:44.501Z,1.02
2022-10-06T11:59:45.487Z,0.57
2022-10-06T12:00:46.516Z,0.58
2022-10-06T12:01:47.433Z,0.48
2022-10-06T12:02:48.577Z,0.38
2022-10-06T12:03:49.531Z,0.69
2022-10-06T12:04:50.527Z,0.51
2022-10-06T12:05:58.678Z,0.54
2022-10-06T12:06:52.920Z,0.35
2022-10-06T12:07:54.479Z,0.51
2022-10-06T12:08:55.479Z,0.23
2022-10-06T12:09:56.583Z,0.34
2022-10-06T12:10:57.519Z,0.79
2022-10-06T12:11:58.519Z,0.35
2022-10-06T12:13:06.943Z,0.13
2022-10-06T12:15:06.354Z,0.32
2022-10-06T12:17:11.640Z,0.95
2022-10-06T12:18:06.459Z,1.02
2022-10-06T12:19:07.580Z,1.28
2022-10-06T12:20:08.622Z,0.31
2022-10-06T12:21:10.539Z,0.7
2022-10-06T12:22:11.446Z,0.13
2022-10-06T12:23:12.520Z,0.7
2022-10-06T12:25:14.733Z,0.6
2022-10-06T12:26:16.601Z,0.18
2022-10-06T12:27:20.739Z,0
2022-10-06T12:28:20.567Z,0.42
2022-10-06T12:29:21.501Z,0.37
2022-10-06T12:30:22.553Z,0.61
2022-10-06T12:31:23.534Z,0.16
2022-10-06T12:32:24.567Z,0.63
2022-10-06T12:33:25.586Z,0.69
2022-10-06T12:34:27.519Z,0.76
2022-10-06T12:35:28.505Z,1.47
2022-10-06T12:36:29.649Z,1.29
2022-10-06T12:37:31.550Z,0.49
2022-10-06T12:38:32.512Z,0.88
2022-10-06T12:39:33.503Z,0.81
2022-10-06T12:40:34.524Z,0.98
2022-10-06T12:41:35.498Z,0.17
2022-10-06T12:42:36.619Z,0.34
2022-10-06T12:43:38.687Z,0.1
2022-10-06T12:44:40.443Z,0.33
2022-10-06T12:45:45.762Z,0.22
2022-10-06T12:46:42.587Z,0.32
2022-10-06T12:47:43.465Z,0.51
2022-10-06T12:48:44.483Z,0.79
2022-10-06T12:49:45.559Z,0.54
2022-10-06T12:50:46.482Z,0.58
2022-10-06T12:51:47.559Z,0.98
2022-10-06T12:52:48.638Z,1.18
2022-10-06T12:53:50.460Z,0.18
2022-10-06T12:54:51.499Z,0.31
2022-10-06T12:55:52.587Z,0.24
2022-10-06T12:56:53.506Z,0.26
2022-10-06T12:57:54.523Z,0.66
2022-10-06T12:58:55.558Z,0.28
2022-10-06T12:59:56.560Z,1.03
2022-10-06T13:00:57.614Z,0.81
2022-10-06T13:01:58.518Z,0.93
2022-10-06T13:02:59.559Z,0.52
2022-10-06T13:04:00.488Z,0.31
2022-10-06T13:05:01.851Z,0.73
2022-10-06T13:06:02.599Z,0.79
2022-10-06T13:07:08.334Z,0.31
2022-10-06T13:08:05.539Z,0.3
2022-10-06T13:09:06.539Z,0.76
2022-10-06T13:10:07.602Z,0.18
2022-10-06T13:11:09.544Z,0.33
2022-10-06T13:12:10.519Z,0.6
2022-10-06T13:13:11.601Z,0.86
2022-10-06T13:14:13.551Z,1.84
2022-10-06T13:15:14.559Z,0.85
2022-10-06T13:16:15.581Z,1.24
2022-10-06T13:17:16.566Z,0.63
2022-10-06T13:18:17.519Z,0.72
2022-10-06T13:19:18.520Z,1.36
2022-10-06T13:20:19.556Z,1.66
2022-10-06T13:21:20.535Z,0.97
2022-10-06T13:22:21.539Z,0.41
2022-10-06T13:23:22.539Z,1.11
2022-10-06T13:24:23.487Z,0.51
2022-10-06T13:25:24.579Z,0.39
2022-10-06T13:26:25.512Z,0.55
2022-10-06T13:27:26.639Z,0.66
2022-10-06T13:28:28.663Z,0.61
2022-10-06T13:29:29.599Z,0.75
2022-10-06T13:30:33.836Z,0.51
2022-10-06T13:31:32.539Z,0.32
2022-10-06T13:32:33.587Z,0.57
2022-10-06T13:33:34.500Z,0.31
2022-10-06T13:34:35.586Z,0.61
2022-10-06T13:35:36.546Z,0.39
2022-10-06T13:36:37.583Z,0.37
2022-10-06T13:37:38.562Z,0.69
2022-10-06T13:38:39.600Z,0.8
2022-10-06T13:39:40.522Z,0.43
2022-10-06T13:40:44.381Z,0.57
2022-10-06T13:41:42.675Z,0.43
2022-10-06T13:42:43.579Z,0.45
2022-10-06T13:43:44.479Z,0.86
2022-10-06T13:44:45.608Z,0.56
2022-10-06T13:45:46.639Z,0.21
2022-10-06T13:46:47.554Z,0.6
2022-10-06T13:47:48.769Z,0.65
2022-10-06T13:48:50.618Z,0.68
2022-10-06T13:49:51.618Z,0.53
2022-10-06T13:50:53.672Z,0.31
2022-10-06T13:51:55.586Z,0.7